createdAt,value
2022-10-04T00:01:48.129Z,18.46
2022-10-04T00:06:58.829Z,18.38
2022-10-04T00:12:02.141Z,18.28
2022-10-04T00:17:27.423Z,18.24
2022-10-04T00:22:33.133Z,18.26
2022-10-04T00:27:41.750Z,18.27
2022-10-04T00:33:03.485Z,18.07
2022-10-04T00:38:13.431Z,18.09
2022-10-04T00:43:27.923Z,18.28
2022-10-04T00:48:39.243Z,18.09
2022-10-04T00:53:51.601Z,18.18
2022-10-04T00:59:09.806Z,18.12
2022-10-04T01:04:49.953Z,17.97
2022-10-04T01:10:01.036Z,18.02
2022-10-04T01:15:07.654Z,18.08
2022-10-04T01:20:28.509Z,18.06
2022-10-04T01:25:50.363Z,18.02
2022-10-04T01:30:55.098Z,18.09
2022-10-04T01:35:57.574Z,18.00
2022-10-04T01:46:39.655Z,18.00
2022-10-04T01:51:54.684Z,17.81
2022-10-04T01:57:11.221Z,17.88
2022-10-04T02:02:20.806Z,18.02
2022-10-04T02:07:26.254Z,17.98
2022-10-04T02:12:37.656Z,18.04
2022-10-04T02:17:43.056Z,17.86
2022-10-04T02:22:48.863Z,17.90
2022-10-04T02:27:53.334Z,17.79
2022-10-04T02:32:58.450Z,17.91
2022-10-04T02:38:15.697Z,17.92
2022-10-04T02:43:22.851Z,17.88
2022-10-04T02:48:32.419Z,17.91
2022-10-04T02:53:49.854Z,17.94
2022-10-04T02:58:57.263Z,17.75
2022-10-04T03:04:00.395Z,17.55
2022-10-04T03:09:08.171Z,17.66
2022-10-04T03:14:20.078Z,17.80
2022-10-04T03:19:26.527Z,17.61
2022-10-04T03:24:30.985Z,17.55
2022-10-04T03:29:35.368Z,17.52
2022-10-04T03:39:58.375Z,17.55
2022-10-04T03:45:07.466Z,17.54
2022-10-04T03:50:35.781Z,17.53
2022-10-04T03:55:40.954Z,17.60
2022-10-04T04:00:56.865Z,17.65
2022-10-04T04:06:00.486Z,17.73
2022-10-04T04:11:04.557Z,17.66
2022-10-04T04:16:09.657Z,17.52
2022-10-04T04:21:14.404Z,17.57
2022-10-04T04:26:25.063Z,17.54
2022-10-04T04:31:54.675Z,17.69
2022-10-04T04:37:01.275Z,17.63
2022-10-04T04:42:16.408Z,17.57
2022-10-04T04:47:36.128Z,17.44
2022-10-04T04:52:38.862Z,17.49
2022-10-04T04:57:42.438Z,17.56
2022-10-04T05:03:06.119Z,17.46
2022-10-04T05:08:19.601Z,17.78
2022-10-04T05:13:22.840Z,17.54
2022-10-04T05:18:25.050Z,17.67
2022-10-04T05:28:59.982Z,17.51
2022-10-04T05:34:07.147Z,17.50
2022-10-04T05:39:12.470Z,17.74
2022-10-04T05:44:21.886Z,17.76
2022-10-04T05:49:26.020Z,17.94
2022-10-04T05:54:35.353Z,18.04
2022-10-04T05:59:40.667Z,17.96
2022-10-04T06:05:08.573Z,17.97
2022-10-04T06:10:26.190Z,18.35
2022-10-04T06:15:56.164Z,18.68
2022-10-04T06:21:06.523Z,18.79
2022-10-04T06:26:15.259Z,19.23
2022-10-04T06:31:29.014Z,19.50
2022-10-04T06:36:40.532Z,19.41
2022-10-04T06:41:59.548Z,19.45
2022-10-04T06:47:19.954Z,19.91
2022-10-04T06:52:29.760Z,20.18
2022-10-04T06:57:51.680Z,20.14
2022-10-04T07:03:27.429Z,20.65
2022-10-04T07:09:14.522Z,20.77
2022-10-04T07:14:32.930Z,20.58
2022-10-04T07:20:02.999Z,20.54
2022-10-04T07:25:09.913Z,20.57
2022-10-04T07:30:17.661Z,20.69
2022-10-04T07:35:25.986Z,20.90
2022-10-04T07:40:50.990Z,20.67
2022-10-04T07:46:03.243Z,20.57
2022-10-04T07:51:27.477Z,20.71
2022-10-04T08:02:04.032Z,20.92
2022-10-04T08:07:17.071Z,20.82
2022-10-04T08:12:26.949Z,21.39
2022-10-04T08:17:38.758Z,22.88
2022-10-04T08:22:59.672Z,21.98
2022-10-04T08:28:24.526Z,21.82
2022-10-04T08:33:39.054Z,21.53
2022-10-04T08:38:49.337Z,21.53
2022-10-04T08:44:06.023Z,21.29
2022-10-04T08:49:27.062Z,21.30
2022-10-04T08:54:42.769Z,21.48
2022-10-04T08:59:48.751Z,21.35
2022-10-04T09:05:03.353Z,21.39
2022-10-04T09:10:25.624Z,21.31
2022-10-04T09:15:29.206Z,21.30
2022-10-04T09:20:51.819Z,21.46
2022-10-04T09:26:14.065Z,21.55
2022-10-04T09:31:43.091Z,21.66
2022-10-04T09:36:52.869Z,21.58
2022-10-04T09:41:58.791Z,21.64
2022-10-04T09:47:21.202Z,21.56
2022-10-04T09:52:43.567Z,21.28
2022-10-04T09:58:15.094Z,21.20
2022-10-04T10:03:23.658Z,21.27
2022-10-04T10:09:00.025Z,21.41
2022-10-04T10:14:04.189Z,21.55
2022-10-04T10:19:18.022Z,21.56
2022-10-04T10:24:45.900Z,21.45
2022-10-04T10:30:06.746Z,21.67
2022-10-04T10:35:15.833Z,21.62
2022-10-04T10:40:31.806Z,21.80
2022-10-04T10:45:53.070Z,21.78
2022-10-04T10:51:14.539Z,21.82
2022-10-04T10:56:29.919Z,21.97
2022-10-04T11:01:59.588Z,21.86
2022-10-04T11:07:23.066Z,21.92
2022-10-04T11:12:28.197Z,22.12
2022-10-04T11:17:56.435Z,22.22
2022-10-04T11:23:14.225Z,22.32
2022-10-04T11:28:31.987Z,22.40
2022-10-04T11:34:00.427Z,22.22
2022-10-04T11:39:13.257Z,22.36
2022-10-04T11:44:18.609Z,22.55
2022-10-04T11:49:24.075Z,22.65
2022-10-04T11:54:56.718Z,22.73
2022-10-04T12:00:10.904Z,22.56
2022-10-04T12:05:23.640Z,22.74
2022-10-04T12:10:37.038Z,22.70
2022-10-04T12:15:39.311Z,22.59
2022-10-04T12:20:53.340Z,22.67
2022-10-04T12:26:15.739Z,22.81
2022-10-04T12:31:23.983Z,22.68
2022-10-04T12:36:49.477Z,22.60
2022-10-04T12:42:03.542Z,22.65
2022-10-04T12:47:24.688Z,22.79
2022-10-04T12:52:42.059Z,22.82
2022-10-04T12:58:21.901Z,22.80
2022-10-04T13:03:27.888Z,22.67
2022-10-04T13:08:45.822Z,22.70
2022-10-04T13:14:06.545Z,22.68
2022-10-04T13:19:27.256Z,22.88
2022-10-04T13:24:55.628Z,22.80
2022-10-04T13:30:14.572Z,22.73
2022-10-04T13:35:28.837Z,22.67
2022-10-04T13:40:55.015Z,22.68
2022-10-04T13:46:00.670Z,22.76
2022-10-04T13:51:15.374Z,22.68
2022-10-04T13:56:41.466Z,22.77
2022-10-04T14:01:44.052Z,22.76
2022-10-04T14:07:06.303Z,22.68
2022-10-04T14:12:36.582Z,22.67
2022-10-04T14:17:47.994Z,22.74
2022-10-04T14:23:14.300Z,22.82
2022-10-04T14:28:27.510Z,22.83
2022-10-04T14:33:44.005Z,22.77
2022-10-04T14:39:07.757Z,22.85
2022-10-04T14:44:45.224Z,22.63
2022-10-04T14:50:00.253Z,22.60
2022-10-04T14:55:21.685Z,22.69
2022-10-04T15:00:36.874Z,22.55
2022-10-04T15:05:39.102Z,22.38
2022-10-04T15:10:53.053Z,21.94
2022-10-04T15:15:58.996Z,22.04
2022-10-04T15:21:21.216Z,22.10
2022-10-04T15:26:23.418Z,22.12
2022-10-04T15:31:50.060Z,22.05
2022-10-04T15:37:03.499Z,21.88
2022-10-04T15:42:13.651Z,21.96
2022-10-04T15:47:34.730Z,21.61
2022-10-04T15:52:52.234Z,21.28
2022-10-04T15:57:54.517Z,21.50
2022-10-04T16:03:02.800Z,21.37
2022-10-04T16:08:11.650Z,21.19
2022-10-04T16:13:16.634Z,21.16
2022-10-04T16:18:51.459Z,20.89
2022-10-04T16:24:14.820Z,21.06
2022-10-04T16:29:30.631Z,20.91
2022-10-04T16:34:44.209Z,20.63
2022-10-04T16:40:09.561Z,20.65
2022-10-04T16:45:14.577Z,20.66
2022-10-04T16:50:38.172Z,20.41
2022-10-04T16:55:46.214Z,20.25
2022-10-04T17:00:49.085Z,20.00
2022-10-04T17:05:53.350Z,20.12
2022-10-04T17:11:04.682Z,20.19
2022-10-04T17:16:18.415Z,20.01
2022-10-04T17:21:28.649Z,20.23
2022-10-04T17:26:43.328Z,20.23
2022-10-04T17:32:10.003Z,19.98
2022-10-04T17:37:16.535Z,19.85
2022-10-04T17:42:18.781Z,19.51
2022-10-04T17:47:54.678Z,19.56
2022-10-04T17:53:19.256Z,19.33
2022-10-04T17:58:39.951Z,19.07
2022-10-04T18:03:54.838Z,19.10
2022-10-04T18:09:19.407Z,19.15
2022-10-04T18:14:31.013Z,19.49
2022-10-04T18:19:48.692Z,19.53
2022-10-04T18:25:14.269Z,19.45
2022-10-04T18:30:22.773Z,19.32
2022-10-04T18:35:31.535Z,19.29
2022-10-04T18:40:35.454Z,19.12
2022-10-04T18:45:40.551Z,19.07
2022-10-04T18:50:48.477Z,19.08
2022-10-04T18:56:00.814Z,19.04
2022-10-04T19:01:41.802Z,19.11
2022-10-04T19:06:48.245Z,19.01
2022-10-04T19:12:23.371Z,18.93
2022-10-04T19:17:30.830Z,18.92
2022-10-04T19:22:48.131Z,18.83
2022-10-04T19:27:52.317Z,18.79
2022-10-04T19:33:22.345Z,18.58
2022-10-04T19:38:29.568Z,18.60
2022-10-04T19:43:42.157Z,18.57
2022-10-04T19:48:51.737Z,18.42
2022-10-04T19:54:00.828Z,18.46
2022-10-04T19:59:10.402Z,18.41
2022-10-04T20:04:35.068Z,18.45
2022-10-04T20:09:37.343Z,18.39
2022-10-04T20:14:39.790Z,18.23
2022-10-04T20:19:43.358Z,18.30
2022-10-04T20:24:46.654Z,18.30
2022-10-04T20:29:51.258Z,18.29
2022-10-04T20:34:56.006Z,18.35
2022-10-04T20:39:58.298Z,18.27
2022-10-04T20:45:06.144Z,18.35
2022-10-04T20:50:13.283Z,18.18
2022-10-04T20:55:28.312Z,18.23
2022-10-04T21:00:34.659Z,18.15
2022-10-04T21:05:37.158Z,18.04
2022-10-04T21:10:39.623Z,18.12
2022-10-04T21:15:54.997Z,18.10
2022-10-04T21:21:00.205Z,18.09
2022-10-04T21:26:21.134Z,18.16
2022-10-04T21:31:23.603Z,18.06
2022-10-04T21:36:25.849Z,18.03
2022-10-04T21:41:28.153Z,18.01
2022-10-04T21:46:32.830Z,17.97
2022-10-04T21:51:40.139Z,17.97
2022-10-04T21:56:42.832Z,18.04
2022-10-04T22:01:45.163Z,17.93
2022-10-04T22:06:49.061Z,17.98
2022-10-04T22:11:52.553Z,17.90
2022-10-04T22:17:05.033Z,18.00
2022-10-04T22:22:12.366Z,17.89
2022-10-04T22:27:18.974Z,17.99
2022-10-04T22:32:21.167Z,17.95
2022-10-04T22:37:25.832Z,18.00
2022-10-04T22:42:31.412Z,18.02
2022-10-04T22:47:33.924Z,17.99
2022-10-04T22:52:36.258Z,17.96
2022-10-04T22:57:38.490Z,17.95
2022-10-04T23:02:41.003Z,17.93
2022-10-04T23:07:44.471Z,18.00
2022-10-04T23:12:47.706Z,18.07
2022-10-04T23:17:55.376Z,18.12
2022-10-04T23:22:59.471Z,18.21
2022-10-04T23:28:03.133Z,18.13
2022-10-04T23:33:19.869Z,18.22
2022-10-04T23:38:24.358Z,18.21
2022-10-04T23:43:26.991Z,18.20
2022-10-04T23:48:33.290Z,18.14
2022-10-04T23:53:38.401Z,18.22
2022-10-04T23:58:41.166Z,18.10
